Time;durP1;ratioP1;P1;durP2;ratioP2;P2;SDS_P1;SDS_P2;PMS_P1;PMS_P2;Temp;Humidity;BMP_temperature;BMP_pressure;BME280_temperature;BME280_humidity;BME280_pressure;Samples;Min_cycle;Max_cycle;Signal;HPM_P1;HPM_P2
2022/08/14 00:00:58;;;;;;;5.22;2.45;;;22.50;64.80;;;;;;5074452;28;20191;-86
2022/08/14 00:03:28;;;;;;;5.68;2.63;;;22.50;64.50;;;;;;5074150;28;20182;-86
2022/08/14 00:05:56;;;;;;;4.90;2.50;;;22.40;64.80;;;;;;5075856;28;20191;-86
2022/08/14 00:08:22;;;;;;;7.70;2.67;;;22.40;65.00;;;;;;5075335;28;20195;-85
2022/08/14 00:10:48;;;;;;;2.88;2.40;;;22.30;64.90;;;;;;5075141;28;20222;-85
2022/08/14 00:13:15;;;;;;;4.22;2.60;;;22.30;65.10;;;;;;5073883;28;20183;-86
2022/08/14 00:15:44;;;;;;;6.38;2.17;;;22.20;65.00;;;;;;5075092;28;20191;-86
2022/08/14 00:18:12;;;;;;;7.22;2.70;;;22.20;65.10;;;;;;5073904;28;20642;-86
2022/08/14 00:20:40;;;;;;;3.55;2.38;;;22.20;65.40;;;;;;5073608;28;20207;-86
2022/08/14 00:23:07;;;;;;;3.50;2.20;;;22.20;65.30;;;;;;5074918;28;20182;-85
2022/08/14 00:25:34;;;;;;;6.78;2.50;;;22.10;65.60;;;;;;5073606;28;20227;-87
2022/08/14 00:28:00;;;;;;;5.15;2.40;;;21.90;66.00;;;;;;5074804;28;20179;-87
2022/08/14 00:30:26;;;;;;;3.35;2.25;;;21.90;66.20;;;;;;5073566;28;20556;-84
2022/08/14 00:32:51;;;;;;;5.40;2.72;;;21.80;66.40;;;;;;5073696;28;20183;-86
2022/08/14 00:35:17;;;;;;;5.57;2.45;;;21.80;66.50;;;;;;5074504;28;20192;-84
2022/08/14 00:37:44;;;;;;;5.43;2.72;;;21.70;66.90;;;;;;5073566;28;20175;-85
2022/08/14 00:40:13;;;;;;;9.65;2.58;;;21.70;67.00;;;;;;5074355;28;20700;-85
2022/08/14 00:42:39;;;;;;;4.43;2.50;;;21.60;67.40;;;;;;5073288;28;20214;-86
2022/08/14 00:45:07;;;;;;;4.78;2.35;;;21.60;67.30;;;;;;5073206;28;20673;-86
2022/08/14 00:47:34;;;;;;;6.63;2.63;;;21.60;67.40;;;;;;5074376;28;20210;-86
2022/08/14 00:50:01;;;;;;;4.30;2.70;;;21.50;67.70;;;;;;5073056;28;20266;-85
2022/08/14 00:52:27;;;;;;;6.18;3.08;;;21.50;67.90;;;;;;5074315;28;20722;-84
2022/08/14 00:54:54;;;;;;;4.97;2.67;;;21.40;68.00;;;;;;5072912;28;20195;-84
2022/08/14 00:57:21;;;;;;;3.67;2.53;;;21.50;67.90;;;;;;5074404;28;20167;-84
2022/08/14 00:59:47;;;;;;;6.78;2.72;;;21.40;68.20;;;;;;5073869;28;20183;-84
2022/08/14 01:02:16;;;;;;;10.73;3.10;;;21.40;68.20;;;;;;5072851;28;20179;-85
2022/08/14 01:04:43;;;;;;;8.63;2.78;;;21.30;68.40;;;;;;5072678;28;20199;-85
2022/08/14 01:07:09;;;;;;;3.20;2.65;;;21.30;68.50;;;;;;5074011;28;20637;-84
2022/08/14 01:09:36;;;;;;;8.82;3.10;;;21.30;68.50;;;;;;5074143;28;20206;-85
2022/08/14 01:12:03;;;;;;;3.47;2.78;;;21.30;68.50;;;;;;5072751;28;20257;-86
2022/08/14 01:14:29;;;;;;;4.38;2.38;;;21.40;68.50;;;;;;5072639;28;20171;-84
2022/08/14 01:16:55;;;;;;;4.93;2.95;;;21.40;68.60;;;;;;5073877;28;20187;-84
2022/08/14 01:22:06;;;;;;;4.40;2.45;;;21.50;68.40;;;;;;5073853;28;20202;-85
2022/08/14 01:24:32;;;;;;;8.75;3.40;;;21.50;68.50;;;;;;5072453;28;20676;-85
2022/08/14 01:26:58;;;;;;;6.10;2.90;;;21.50;68.50;;;;;;5073935;28;20196;-84
2022/08/14 01:29:26;;;;;;;6.55;3.10;;;21.50;68.60;;;;;;5072313;28;20706;-84
2022/08/14 01:31:51;;;;;;;5.95;2.40;;;21.50;68.50;;;;;;5073623;28;20225;-84
2022/08/14 01:34:19;;;;;;;5.72;2.65;;;21.50;68.60;;;;;;5073912;28;20171;-85
2022/08/14 01:36:45;;;;;;;6.40;2.75;;;21.40;68.80;;;;;;5073577;28;20191;-85
2022/08/14 01:39:13;;;;;;;5.53;2.72;;;21.40;69.10;;;;;;5073452;28;20167;-85
2022/08/14 01:41:41;;;;;;;4.32;2.63;;;21.30;69.20;;;;;;5073628;28;20195;-84
2022/08/14 01:44:11;;;;;;;3.80;2.70;;;21.30;69.30;;;;;;5072128;28;20175;-84
2022/08/14 01:46:39;;;;;;;8.02;2.85;;;21.20;69.60;;;;;;5072913;28;20184;-84
2022/08/14 01:49:08;;;;;;;4.72;2.60;;;21.10;70.10;;;;;;5073380;28;20178;-84
2022/08/14 01:51:35;;;;;;;4.53;2.67;;;21.10;70.10;;;;;;5072003;28;20266;-84
2022/08/14 01:54:07;;;;;;;4.50;2.65;;;21.10;70.00;;;;;;5072062;28;20175;-85
2022/08/14 01:56:43;;;;;;;4.60;2.70;;;21.10;70.00;;;;;;5072027;28;20222;-84
2022/08/14 01:59:14;;;;;;;5.13;3.17;;;21.00;70.30;;;;;;5071852;28;20195;-84
2022/08/14 02:01:42;;;;;;;8.05;2.75;;;21.00;70.30;;;;;;5071924;28;20348;-84
2022/08/14 02:04:08;;;;;;;8.65;2.60;;;20.90;70.40;;;;;;5073219;28;20645;-85
2022/08/14 02:06:36;;;;;;;4.25;2.72;;;20.90;70.50;;;;;;5073144;28;20199;-85
2022/08/14 02:09:06;;;;;;;9.30;2.92;;;20.90;70.70;;;;;;5071957;28;20177;-84
2022/08/14 02:11:33;;;;;;;6.15;2.80;;;20.90;70.80;;;;;;5071944;28;20164;-84
2022/08/14 02:14:00;;;;;;;3.17;2.70;;;20.80;71.00;;;;;;5071972;28;20183;-84
2022/08/14 02:16:29;;;;;;;4.10;2.85;;;20.80;71.30;;;;;;5071969;28;20227;-84
2022/08/14 02:18:57;;;;;;;5.10;2.88;;;20.80;71.60;;;;;;5072623;28;20179;-84
2022/08/14 02:21:23;;;;;;;5.40;3.28;;;20.70;71.80;;;;;;5072986;28;20206;-84
2022/08/14 02:23:51;;;;;;;6.38;3.10;;;20.60;72.10;;;;;;5073195;28;20168;-84
2022/08/14 02:26:26;;;;;;;7.75;2.83;;;20.70;72.20;;;;;;5073011;28;20260;-84
2022/08/14 02:28:54;;;;;;;7.13;2.88;;;20.70;72.20;;;;;;5071778;28;20194;-84
2022/08/14 02:31:20;;;;;;;3.75;3.00;;;20.70;72.20;;;;;;5071703;28;20186;-85
2022/08/14 02:33:46;;;;;;;4.70;2.78;;;20.70;72.10;;;;;;5071757;28;20180;-85
2022/08/14 02:36:13;;;;;;;9.93;3.50;;;20.70;72.20;;;;;;5071876;28;20195;-84
2022/08/14 02:38:39;;;;;;;5.55;2.83;;;20.70;72.40;;;;;;5071702;28;20210;-86
2022/08/14 02:41:08;;;;;;;3.20;2.90;;;20.60;72.70;;;;;;5071565;28;20203;-85
2022/08/14 02:43:33;;;;;;;11.82;3.17;;;20.60;72.80;;;;;;5072839;28;20583;-84
2022/08/14 02:46:00;;;;;;;9.23;2.88;;;20.50;72.90;;;;;;5073008;28;20263;-85
2022/08/14 02:48:32;;;;;;;4.72;3.05;;;20.50;73.00;;;;;;5072887;28;20255;-85
2022/08/14 02:50:58;;;;;;;4.10;2.83;;;20.50;73.00;;;;;;5072759;28;20714;-84
2022/08/14 02:53:24;;;;;;;4.70;2.90;;;20.50;73.10;;;;;;5072641;28;20222;-84
2022/08/14 02:55:49;;;;;;;5.10;2.97;;;20.50;73.10;;;;;;5072640;28;20195;-84
2022/08/14 02:58:16;;;;;;;5.82;2.88;;;20.50;73.10;;;;;;5071427;28;20183;-84
2022/08/14 03:00:42;;;;;;;7.05;2.58;;;20.50;73.20;;;;;;5074917;28;20294;-85
2022/08/14 03:03:07;;;;;;;6.03;2.65;;;20.50;73.30;;;;;;5075345;28;20209;-85
2022/08/14 03:05:34;;;;;;;3.92;3.00;;;20.50;73.30;;;;;;5076258;28;20191;-85
2022/08/14 03:08:08;;;;;;;6.28;3.20;;;20.50;73.30;;;;;;5075151;28;20653;-85
2022/08/14 03:10:34;;;;;;;6.32;2.80;;;20.50;73.50;;;;;;5075131;28;20187;-84
2022/08/14 03:13:03;;;;;;;3.47;2.80;;;20.50;73.60;;;;;;5076217;28;20188;-85
2022/08/14 03:15:29;;;;;;;6.35;2.85;;;20.40;73.90;;;;;;5075682;28;20252;-85
2022/08/14 03:17:55;;;;;;;4.97;3.05;;;20.40;74.00;;;;;;5076070;28;20182;-84
2022/08/14 03:20:20;;;;;;;4.82;2.65;;;20.40;73.90;;;;;;5076167;28;20195;-87
2022/08/14 03:22:46;;;;;;;9.38;2.80;;;20.40;73.90;;;;;;5074809;28;20193;-84
2022/08/14 03:25:12;;;;;;;3.55;2.83;;;20.40;73.80;;;;;;5076208;28;20191;-85
2022/08/14 03:27:38;;;;;;;3.60;2.60;;;20.50;73.80;;;;;;5075991;28;20194;-85
2022/08/14 03:30:04;;;;;;;5.05;2.55;;;20.50;73.90;;;;;;5076161;28;20649;-85
2022/08/14 03:32:32;;;;;;;6.40;3.00;;;20.50;74.00;;;;;;5074772;28;20266;-85
2022/08/14 03:34:58;;;;;;;5.90;3.08;;;20.50;73.90;;;;;;5076045;28;20188;-85
2022/08/14 03:37:25;;;;;;;8.75;3.08;;;20.50;74.00;;;;;;5074598;28;20240;-85
2022/08/14 03:39:52;;;;;;;2.97;2.55;;;20.50;74.10;;;;;;5076026;28;20164;-85
2022/08/14 03:42:17;;;;;;;3.97;2.90;;;20.50;74.40;;;;;;5074482;28;20172;-84
2022/08/14 03:44:44;;;;;;;4.60;3.15;;;20.50;74.40;;;;;;5074445;28;20599;-86
2022/08/14 03:47:11;;;;;;;4.35;2.65;;;20.50;74.50;;;;;;5074455;28;20199;-84
2022/08/14 03:49:37;;;;;;;5.70;2.95;;;20.50;74.60;;;;;;5075768;28;20164;-85
2022/08/14 03:52:04;;;;;;;8.10;3.17;;;20.50;75.00;;;;;;5074269;28;20186;-85
2022/08/14 03:54:30;;;;;;;7.38;3.40;;;20.50;75.30;;;;;;5075528;28;20584;-85
2022/08/14 03:56:59;;;;;;;4.38;3.05;;;20.30;75.50;;;;;;5074067;28;20202;-85
2022/08/14 03:59:25;;;;;;;5.45;3.13;;;20.20;75.50;;;;;;5074128;28;20783;-85
2022/08/14 04:01:51;;;;;;;7.35;3.28;;;20.20;75.80;;;;;;5075167;28;20199;-85
2022/08/14 04:04:17;;;;;;;8.10;3.58;;;20.20;75.90;;;;;;5074115;28;20175;-85
2022/08/14 04:06:43;;;;;;;3.25;2.92;;;20.20;75.90;;;;;;5075382;28;20282;-84
2022/08/14 04:09:08;;;;;;;6.00;3.17;;;20.10;75.80;;;;;;5075022;28;20167;-84
2022/08/14 04:11:35;;;;;;;6.18;3.42;;;20.10;75.90;;;;;;5075055;28;20262;-84
2022/08/14 04:14:01;;;;;;;3.08;2.78;;;20.20;75.70;;;;;;5073762;28;20183;-84
2022/08/14 04:16:27;;;;;;;5.90;3.00;;;20.20;75.50;;;;;;5073759;28;20195;-84
2022/08/14 04:18:55;;;;;;;5.45;3.13;;;20.20;75.50;;;;;;5073782;28;20209;-85
2022/08/14 04:21:23;;;;;;;11.70;3.10;;;20.30;75.40;;;;;;5074792;28;20286;-84
2022/08/14 04:23:50;;;;;;;4.70;2.97;;;20.30;75.20;;;;;;5073719;28;20201;-85
2022/08/14 04:26:20;;;;;;;8.88;2.78;;;20.30;75.20;;;;;;5075138;28;20187;-84
2022/08/14 04:28:48;;;;;;;6.80;2.90;;;20.30;75.30;;;;;;5075162;28;20155;-85
2022/08/14 04:31:14;;;;;;;3.83;2.53;;;20.30;75.30;;;;;;5074700;28;20671;-84
2022/08/14 04:33:40;;;;;;;6.03;3.05;;;20.30;75.30;;;;;;5073496;28;20657;-84
2022/08/14 04:36:06;;;;;;;5.32;2.83;;;20.30;75.40;;;;;;5073516;28;20244;-85
2022/08/14 04:44:01;;;;;;;8.18;3.08;;;20.20;75.80;;;;;;5074591;28;20230;-84
2022/08/14 04:46:27;;;;;;;8.75;2.92;;;20.20;75.80;;;;;;5074563;28;20179;-85
2022/08/14 04:48:54;;;;;;;3.88;2.88;;;20.20;75.80;;;;;;5073227;28;20180;-84
2022/08/14 04:51:24;;;;;;;14.13;3.40;;;20.10;76.10;;;;;;5073191;28;20175;-84
2022/08/14 04:53:50;;;;;;;9.20;2.95;;;20.10;76.30;;;;;;5073059;28;20246;-84
2022/08/14 04:56:21;;;;;;;8.43;3.05;;;20.00;76.30;;;;;;5072904;28;20304;-84
2022/08/14 04:58:56;;;;;;;5.95;3.03;;;20.10;76.40;;;;;;5072890;28;20183;-84
2022/08/14 05:01:22;;;;;;;7.75;2.80;;;20.10;76.40;;;;;;5074011;28;20730;-84
2022/08/14 05:03:48;;;;;;;7.40;2.70;;;20.20;76.30;;;;;;5073201;28;20171;-84
2022/08/14 05:06:14;;;;;;;5.10;2.67;;;20.20;76.30;;;;;;5073001;28;20216;-85
2022/08/14 05:08:42;;;;;;;5.50;2.85;;;20.20;76.30;;;;;;5074133;28;20171;-84
2022/08/14 05:11:08;;;;;;;5.05;3.08;;;20.30;76.40;;;;;;5072666;28;20178;-85
2022/08/14 05:13:35;;;;;;;8.43;3.10;;;20.30;76.50;;;;;;5072726;28;20183;-85
2022/08/14 05:16:01;;;;;;;6.35;3.20;;;20.30;76.50;;;;;;5072682;28;20223;-84
2022/08/14 05:18:30;;;;;;;6.82;3.42;;;20.40;76.40;;;;;;5072639;28;20175;-85
2022/08/14 05:20:57;;;;;;;3.83;2.90;;;20.50;76.10;;;;;;5072174;28;20249;-85
2022/08/14 05:23:26;;;;;;;7.07;2.63;;;20.60;75.60;;;;;;5072220;28;20171;-84
2022/08/14 05:25:56;;;;;;;4.57;3.00;;;20.70;75.70;;;;;;5073678;28;20677;-84
2022/08/14 05:28:24;;;;;;;5.97;3.10;;;20.70;75.40;;;;;;5074068;28;20167;-85
2022/08/14 05:30:52;;;;;;;7.15;3.38;;;20.70;75.00;;;;;;5073742;28;20225;-85
2022/08/14 05:33:19;;;;;;;5.95;3.20;;;20.80;75.30;;;;;;5073632;28;20548;-85
2022/08/14 05:35:47;;;;;;;5.80;2.83;;;20.90;75.00;;;;;;5072240;28;20194;-84
2022/08/14 05:38:16;;;;;;;10.82;2.80;;;20.90;74.30;;;;;;5072294;28;20199;-84
2022/08/14 05:40:43;;;;;;;8.68;2.63;;;20.90;74.50;;;;;;5072393;28;20203;-84
2022/08/14 05:43:09;;;;;;;7.15;3.03;;;21.00;74.40;;;;;;5072220;28;20172;-84
2022/08/14 05:45:36;;;;;;;6.60;2.78;;;21.00;74.90;;;;;;5073384;28;20590;-85
2022/08/14 05:48:02;;;;;;;8.90;2.92;;;21.10;74.40;;;;;;5072233;28;20270;-85
2022/08/14 05:50:29;;;;;;;8.65;2.90;;;21.10;74.50;;;;;;5073423;28;20168;-84
2022/08/14 05:52:54;;;;;;;6.43;2.60;;;21.10;74.40;;;;;;5072098;28;20266;-86
2022/08/14 05:55:20;;;;;;;5.13;2.78;;;21.20;74.50;;;;;;5072012;28;20272;-86
2022/08/14 05:57:53;;;;;;;6.60;2.60;;;21.20;74.00;;;;;;5072655;28;20171;-85
2022/08/14 06:00:22;;;;;;;8.32;2.42;;;21.20;74.40;;;;;;5073110;28;20230;-85
2022/08/14 06:02:48;;;;;;;6.40;2.85;;;21.20;74.10;;;;;;5071977;28;20206;-85
2022/08/14 06:05:14;;;;;;;6.38;2.60;;;21.20;74.10;;;;;;5072136;28;20651;-85
2022/08/14 06:07:39;;;;;;;7.68;3.38;;;21.20;74.40;;;;;;5073193;28;20195;-85
2022/08/14 06:10:07;;;;;;;12.05;2.67;;;21.20;74.40;;;;;;5071955;28;20182;-85
2022/08/14 06:12:34;;;;;;;7.10;2.70;;;21.20;74.40;;;;;;5071968;28;20192;-85
2022/08/14 06:14:59;;;;;;;6.72;2.50;;;21.30;74.40;;;;;;5073106;28;20278;-85
2022/08/14 06:17:25;;;;;;;7.50;2.85;;;21.30;74.10;;;;;;5071794;28;20203;-85
2022/08/14 06:19:51;;;;;;;3.97;2.60;;;21.40;74.30;;;;;;5071865;28;20175;-84
2022/08/14 06:22:17;;;;;;;4.25;2.70;;;21.40;74.40;;;;;;5073205;28;20195;-85
2022/08/14 06:24:42;;;;;;;4.90;2.28;;;21.40;74.00;;;;;;5071822;28;20179;-85
2022/08/14 06:27:08;;;;;;;3.85;2.50;;;21.50;74.50;;;;;;5073494;28;20175;-87
2022/08/14 06:29:35;;;;;;;7.95;2.63;;;21.70;74.20;;;;;;5073067;28;20171;-85
2022/08/14 06:32:02;;;;;;;8.32;2.83;;;21.70;74.00;;;;;;5073914;28;20672;-86
2022/08/14 06:34:27;;;;;;;4.07;2.22;;;21.80;73.50;;;;;;5076700;28;20280;-84
2022/08/14 06:36:55;;;;;;;7.00;2.63;;;21.90;73.40;;;;;;5075872;28;20684;-87
2022/08/14 06:39:21;;;;;;;5.88;2.55;;;22.00;73.70;;;;;;5077809;28;20167;-86
2022/08/14 06:41:47;;;;;;;6.75;2.50;;;22.20;73.30;;;;;;5079052;28;20206;-87
2022/08/14 06:44:12;;;;;;;4.90;2.40;;;22.40;73.20;;;;;;5077085;28;20167;-86
2022/08/14 06:46:38;;;;;;;6.93;2.75;;;22.50;71.70;;;;;;5078201;28;20191;-87
2022/08/14 06:49:03;;;;;;;7.32;3.35;;;22.60;71.20;;;;;;5076365;28;20276;-85
2022/08/14 06:51:29;;;;;;;5.22;2.40;;;22.80;71.80;;;;;;5077797;28;20176;-85
2022/08/14 06:53:55;;;;;;;4.95;2.45;;;22.90;71.00;;;;;;5076553;28;20687;-85
2022/08/14 06:56:22;;;;;;;8.82;2.42;;;23.10;70.20;;;;;;5077918;28;20195;-85
2022/08/14 06:58:48;;;;;;;5.57;2.40;;;23.30;70.30;;;;;;5076034;28;20186;-84
2022/08/14 07:06:42;;;;;;;6.82;2.42;;;23.80;69.10;;;;;;5077514;28;20213;-85
2022/08/14 07:09:09;;;;;;;4.78;2.53;;;23.90;68.20;;;;;;5077245;28;20629;-84
2022/08/14 07:11:35;;;;;;;6.50;2.97;;;24.00;66.70;;;;;;5077098;28;20160;-84
2022/08/14 07:14:00;;;;;;;4.10;2.20;;;24.10;67.40;;;;;;5075836;28;20186;-84
2022/08/14 07:16:26;;;;;;;5.05;2.55;;;24.00;66.50;;;;;;5075606;28;20282;-85
2022/08/14 07:18:51;;;;;;;9.60;2.55;;;23.90;67.40;;;;;;5077721;28;20210;-85
2022/08/14 07:21:17;;;;;;;7.60;2.65;;;24.00;67.10;;;;;;5075668;28;20226;-85
2022/08/14 07:23:42;;;;;;;7.25;2.53;;;24.10;66.50;;;;;;5076095;28;20611;-85
2022/08/14 07:26:09;;;;;;;3.35;2.30;;;24.10;66.90;;;;;;5077556;28;20196;-85
2022/08/14 07:28:37;;;;;;;6.88;2.85;;;24.20;67.20;;;;;;5075468;28;20186;-85
2022/08/14 07:31:09;;;;;;;6.10;2.58;;;24.30;66.80;;;;;;5075445;28;20207;-86
2022/08/14 07:33:47;;;;;;;8.30;2.42;;;24.20;66.00;;;;;;5076814;28;20175;-85
2022/08/14 07:36:14;;;;;;;7.22;2.65;;;24.20;66.50;;;;;;5075327;28;20275;-85
2022/08/14 07:38:40;;;;;;;6.50;2.70;;;24.20;66.60;;;;;;5077116;28;20172;-85
2022/08/14 07:41:09;;;;;;;11.38;2.45;;;24.30;66.40;;;;;;5075263;28;20201;-84
2022/08/14 07:43:35;;;;;;;7.10;2.50;;;24.30;66.90;;;;;;5077106;28;20653;-85
2022/08/14 07:46:01;;;;;;;2.17;2.00;;;24.30;66.10;;;;;;5073914;28;20282;-84
2022/08/14 07:48:27;;;;;;;10.07;2.70;;;24.50;66.00;;;;;;5076069;28;20181;-85
2022/08/14 07:50:53;;;;;;;10.77;2.55;;;24.60;65.50;;;;;;5075089;28;20183;-85
2022/08/14 07:53:20;;;;;;;10.82;2.78;;;24.70;65.80;;;;;;5074684;28;20171;-85
2022/08/14 07:55:46;;;;;;;5.88;2.72;;;24.80;65.30;;;;;;5074851;28;20195;-85
2022/08/14 07:58:12;;;;;;;6.88;2.50;;;25.00;65.90;;;;;;5074656;28;20180;-85
2022/08/14 08:00:38;;;;;;;5.45;2.60;;;25.00;65.20;;;;;;5075651;28;20301;-85
2022/08/14 08:03:09;;;;;;;7.40;2.47;;;25.20;64.90;;;;;;5074535;28;20183;-85
2022/08/14 08:05:37;;;;;;;10.95;2.55;;;25.20;64.10;;;;;;5074319;28;20692;-85
2022/08/14 08:08:03;;;;;;;7.00;2.80;;;25.40;64.30;;;;;;5074328;28;20176;-84
2022/08/14 08:10:32;;;;;;;7.05;3.00;;;25.30;63.90;;;;;;5074462;28;20209;-85
2022/08/14 08:13:08;;;;;;;10.18;2.80;;;25.50;63.90;;;;;;5074311;28;20179;-85
2022/08/14 08:15:36;;;;;;;4.97;2.58;;;25.60;63.30;;;;;;5074526;28;20234;-84
2022/08/14 08:18:04;;;;;;;10.60;2.60;;;25.90;63.40;;;;;;5075424;28;20168;-84
2022/08/14 08:20:32;;;;;;;8.30;2.90;;;26.10;62.50;;;;;;5074458;28;20206;-86
2022/08/14 08:23:05;;;;;;;9.80;2.72;;;26.20;62.00;;;;;;5075176;28;20525;-85
2022/08/14 08:25:34;;;;;;;5.40;2.85;;;26.30;60.90;;;;;;5075075;28;20195;-85
2022/08/14 08:28:07;;;;;;;7.45;3.33;;;26.40;61.00;;;;;;5074216;28;20234;-86
2022/08/14 08:30:36;;;;;;;7.47;2.95;;;26.60;61.60;;;;;;5075436;28;20152;-85
2022/08/14 08:33:03;;;;;;;4.32;2.60;;;26.80;61.00;;;;;;5073780;28;20183;-85
2022/08/14 08:35:32;;;;;;;5.80;2.88;;;26.70;59.90;;;;;;5073585;28;20563;-85
2022/08/14 08:38:04;;;;;;;11.52;3.35;;;26.60;60.00;;;;;;5073526;28;20665;-84
2022/08/14 08:40:50;;;;;;;5.22;2.78;;;26.60;60.50;;;;;;5074940;28;20219;-85
2022/08/14 08:43:20;;;;;;;6.75;3.00;;;26.60;59.70;;;;;;5074825;28;20226;-84
2022/08/14 08:45:56;;;;;;;5.43;2.38;;;26.50;59.60;;;;;;5074726;28;20665;-85
2022/08/14 08:48:25;;;;;;;6.90;2.97;;;26.60;60.10;;;;;;5074850;28;20660;-84
2022/08/14 08:50:50;;;;;;;7.85;2.95;;;26.70;59.30;;;;;;5073314;28;20179;-84
2022/08/14 08:53:16;;;;;;;5.22;2.97;;;26.90;59.70;;;;;;5074518;28;20221;-85
2022/08/14 08:55:43;;;;;;;4.18;3.03;;;27.00;59.70;;;;;;5074472;28;20223;-85
2022/08/14 08:58:12;;;;;;;4.72;2.72;;;27.10;59.00;;;;;;5074921;28;20649;-85
2022/08/14 09:00:39;;;;;;;7.57;3.05;;;27.10;58.90;;;;;;5072964;28;20215;-86
2022/08/14 09:03:06;;;;;;;6.47;3.42;;;27.00;58.60;;;;;;5073084;28;20273;-87
2022/08/14 09:05:35;;;;;;;3.40;2.85;;;27.00;58.80;;;;;;5073415;28;20644;-87
2022/08/14 09:08:13;;;;;;;6.93;3.22;;;26.90;57.70;;;;;;5073748;28;20171;-84
2022/08/14 09:10:39;;;;;;;5.63;3.10;;;26.70;58.90;;;;;;5073189;28;20251;-85
2022/08/14 09:13:05;;;;;;;10.55;3.42;;;26.80;60.20;;;;;;5074653;28;20662;-84
2022/08/14 09:15:30;;;;;;;5.60;2.92;;;26.90;58.80;;;;;;5074768;28;20199;-85
2022/08/14 09:17:56;;;;;;;6.97;2.80;;;26.90;59.60;;;;;;5074408;28;20535;-84
2022/08/14 09:20:24;;;;;;;8.30;2.63;;;27.00;59.30;;;;;;5072812;28;20206;-84
2022/08/14 09:22:50;;;;;;;4.60;3.20;;;27.20;59.60;;;;;;5074124;28;20250;-84
2022/08/14 09:25:16;;;;;;;9.30;3.42;;;27.50;57.80;;;;;;5072710;28;20268;-85
2022/08/14 09:27:42;;;;;;;3.38;2.72;;;27.70;57.70;;;;;;5074030;28;20175;-84
2022/08/14 09:30:09;;;;;;;8.18;3.08;;;27.80;58.00;;;;;;5072547;28;20680;-85
2022/08/14 09:33:01;;;;;;;4.55;3.13;;;28.00;57.70;;;;;;5073944;28;20190;-85
2022/08/14 09:35:55;;;;;;;11.35;3.22;;;28.00;55.80;;;;;;5072472;28;20264;-85
2022/08/14 09:38:35;;;;;;;7.60;3.08;;;28.20;56.60;;;;;;5074255;28;20156;-85
2022/08/14 09:41:34;;;;;;;3.80;3.08;;;28.30;54.40;;;;;;5072424;28;20191;-85
2022/08/14 09:44:07;;;;;;;9.30;3.35;;;28.50;55.80;;;;;;5072485;28;20164;-86
2022/08/14 09:46:34;;;;;;;10.40;4.07;;;28.70;55.40;;;;;;5073522;28;20194;-86
2022/08/14 09:49:02;;;;;;;13.73;3.33;;;28.70;53.40;;;;;;5073608;28;20182;-85
2022/08/14 09:51:29;;;;;;;5.50;2.95;;;28.70;53.50;;;;;;5073605;28;20171;-86
2022/08/14 09:54:11;;;;;;;5.07;3.13;;;28.70;54.00;;;;;;5073599;28;20187;-85
2022/08/14 09:56:48;;;;;;;9.80;3.72;;;28.70;54.60;;;;;;5072221;28;20203;-85
2022/08/14 09:59:20;;;;;;;6.13;3.42;;;28.80;53.90;;;;;;5071959;28;20191;-85
2022/08/14 10:01:47;;;;;;;7.55;3.45;;;28.80;52.90;;;;;;5072142;28;20742;-81
2022/08/14 10:04:27;;;;;;;6.20;2.85;;;29.00;54.40;;;;;;5072176;28;20175;-81
2022/08/14 10:06:53;;;;;;;6.80;3.33;;;29.10;53.00;;;;;;5072175;28;20197;-80
2022/08/14 10:09:19;;;;;;;10.00;3.47;;;29.10;53.00;;;;;;5073334;28;20172;-81
2022/08/14 10:11:57;;;;;;;6.97;3.33;;;29.20;52.40;;;;;;5073375;28;20221;-81
2022/08/14 10:14:27;;;;;;;10.48;3.85;;;29.20;52.20;;;;;;5073681;28;20679;-82
2022/08/14 10:16:56;;;;;;;6.78;3.40;;;29.20;53.30;;;;;;5072406;28;20203;-88
2022/08/14 10:19:24;;;;;;;14.07;4.30;;;29.30;53.10;;;;;;5075568;28;20663;-83
2022/08/14 10:22:07;;;;;;;10.10;3.75;;;29.50;52.00;;;;;;5075522;28;20290;-83
2022/08/14 10:24:41;;;;;;;7.95;3.85;;;29.70;52.60;;;;;;5075550;28;20167;-83
2022/08/14 10:27:18;;;;;;;6.53;3.88;;;29.70;50.50;;;;;;5074519;28;20167;-84
2022/08/14 10:29:49;;;;;;;6.35;4.00;;;29.80;50.90;;;;;;5074989;28;20194;-83
2022/08/14 10:32:14;;;;;;;6.55;3.85;;;29.60;49.90;;;;;;5073459;28;20171;-82
2022/08/14 10:34:40;;;;;;;8.90;4.15;;;29.70;49.80;;;;;;5072443;28;20552;-82
2022/08/14 10:37:09;;;;;;;6.13;4.10;;;29.80;50.30;;;;;;5074552;28;20226;-82
2022/08/14 10:39:36;;;;;;;9.35;3.85;;;29.90;49.30;;;;;;5073295;28;20171;-83
2022/08/14 10:42:08;;;;;;;9.52;3.80;;;30.10;49.50;;;;;;5073859;28;20195;-83
2022/08/14 10:44:39;;;;;;;4.90;3.50;;;30.30;50.40;;;;;;5073129;28;20420;-83
2022/08/14 10:47:12;;;;;;;6.10;3.72;;;29.90;50.30;;;;;;5073421;28;20171;-84
2022/08/14 10:49:49;;;;;;;6.32;4.00;;;29.90;50.80;;;;;;5076884;28;20144;-84
2022/08/14 10:52:23;;;;;;;9.48;3.63;;;30.10;51.50;;;;;;5075144;28;20213;-83
2022/08/14 10:54:50;;;;;;;6.82;3.65;;;30.20;48.90;;;;;;5072643;28;20186;-83
2022/08/14 10:57:27;;;;;;;13.00;4.07;;;30.20;49.50;;;;;;5073068;28;20252;-84
2022/08/14 10:59:57;;;;;;;6.05;4.28;;;30.10;49.70;;;;;;5073554;28;20218;-82
2022/08/14 11:02:30;;;;;;;10.07;4.45;;;30.00;48.90;;;;;;5073304;28;20207;-83
2022/08/14 11:05:13;;;;;;;6.43;4.60;;;29.70;49.60;;;;;;5071741;28;20280;-82
2022/08/14 11:07:53;;;;;;;6.90;3.95;;;29.60;49.10;;;;;;5073463;28;20163;-82
2022/08/14 11:10:19;;;;;;;8.52;4.03;;;29.50;50.10;;;;;;5073335;28;20155;-84
2022/08/14 11:12:55;;;;;;;9.90;4.60;;;29.40;50.10;;;;;;5072892;28;20175;-81
2022/08/14 11:15:27;;;;;;;5.00;4.28;;;29.20;49.40;;;;;;5071724;28;20195;-81
2022/08/14 11:17:55;;;;;;;7.28;4.03;;;29.40;52.30;;;;;;5072996;28;20156;-85
2022/08/14 11:20:24;;;;;;;8.05;3.97;;;29.30;51.30;;;;;;5073385;28;20588;-79
2022/08/14 11:22:54;;;;;;;11.25;4.43;;;29.20;51.00;;;;;;5075313;28;20175;-80
2022/08/14 11:25:25;;;;;;;7.20;3.97;;;29.00;52.10;;;;;;5076677;28;20187;-80
2022/08/14 11:27:55;;;;;;;6.22;4.43;;;29.00;52.40;;;;;;5076632;28;20156;-80
2022/08/14 11:30:26;;;;;;;7.25;4.18;;;29.10;51.80;;;;;;5076139;28;20259;-80
2022/08/14 11:32:53;;;;;;;5.72;4.80;;;29.20;52.90;;;;;;5076740;28;20155;-80
2022/08/14 11:35:25;;;;;;;6.22;4.80;;;29.20;51.30;;;;;;5076348;28;20183;-80
2022/08/14 11:37:55;;;;;;;12.13;4.63;;;29.40;50.70;;;;;;5075009;28;20221;-80
2022/08/14 11:40:23;;;;;;;8.23;4.60;;;29.70;48.70;;;;;;5075013;28;20592;-80
2022/08/14 11:42:54;;;;;;;7.05;4.10;;;29.70;49.10;;;;;;5074816;28;20652;-80
2022/08/14 11:45:27;;;;;;;9.77;4.80;;;29.60;48.50;;;;;;5076421;28;20263;-80
2022/08/14 11:47:55;;;;;;;7.53;4.72;;;29.70;48.00;;;;;;5076394;28;20152;-80
2022/08/14 11:50:32;;;;;;;6.03;4.60;;;29.80;48.00;;;;;;5075979;28;20171;-80
2022/08/14 11:53:01;;;;;;;7.10;4.93;;;30.00;48.40;;;;;;5074717;28;20617;-80
2022/08/14 11:55:32;;;;;;;6.80;4.80;;;30.10;48.50;;;;;;5076288;28;20191;-80
2022/08/14 11:58:04;;;;;;;12.20;5.15;;;30.00;48.30;;;;;;5074670;28;20169;-80
2022/08/14 12:00:30;;;;;;;8.52;4.50;;;29.90;48.30;;;;;;5075853;28;20339;-80
2022/08/14 12:02:58;;;;;;;8.88;4.78;;;29.90;46.80;;;;;;5075777;28;20217;-81
2022/08/14 12:05:38;;;;;;;7.95;4.63;;;30.00;47.50;;;;;;5075622;28;20196;-80
2022/08/14 12:08:08;;;;;;;7.82;4.72;;;30.20;46.40;;;;;;5074455;28;20195;-80
2022/08/14 12:10:40;;;;;;;9.25;4.38;;;30.40;46.70;;;;;;5075717;28;20155;-82
2022/08/14 12:13:14;;;;;;;10.07;4.43;;;30.60;46.60;;;;;;5074232;28;20175;-81
2022/08/14 12:15:41;;;;;;;6.50;4.93;;;30.30;47.40;;;;;;5074478;28;20265;-80
2022/08/14 12:18:07;;;;;;;10.13;4.57;;;30.00;47.20;;;;;;5075597;28;20202;-80
2022/08/14 12:20:36;;;;;;;8.80;5.10;;;29.80;48.30;;;;;;5075609;28;20677;-81
2022/08/14 12:23:04;;;;;;;6.88;4.68;;;29.70;48.80;;;;;;5074472;28;20180;-80
2022/08/14 12:25:30;;;;;;;8.77;5.10;;;29.60;48.70;;;;;;5074000;28;20202;-80
2022/08/14 12:27:59;;;;;;;6.28;4.35;;;29.60;48.40;;;;;;5075276;28;20221;-80
2022/08/14 12:30:42;;;;;;;7.85;4.03;;;29.60;48.70;;;;;;5075113;28;20601;-80
2022/08/14 12:33:26;;;;;;;7.75;4.43;;;29.60;51.50;;;;;;5075860;28;20160;-80
2022/08/14 12:35:54;;;;;;;5.35;3.97;;;29.50;51.50;;;;;;5075093;28;20695;-80
2022/08/14 12:38:31;;;;;;;10.10;4.50;;;29.30;51.70;;;;;;5074368;28;20221;-80
2022/08/14 12:40:57;;;;;;;10.57;4.78;;;29.20;51.10;;;;;;5073930;28;20190;-80
2022/08/14 12:43:23;;;;;;;7.47;4.85;;;29.10;52.30;;;;;;5075296;28;20539;-80
2022/08/14 12:45:53;;;;;;;6.95;4.55;;;29.00;52.50;;;;;;5073964;28;20282;-80
2022/08/14 12:48:20;;;;;;;5.03;4.10;;;28.80;51.90;;;;;;5075465;28;20622;-80
2022/08/14 12:50:46;;;;;;;4.97;4.50;;;28.70;52.50;;;;;;5074773;28;20171;-80
2022/08/14 12:53:12;;;;;;;6.57;4.22;;;28.60;53.60;;;;;;5075014;28;20549;-80
2022/08/14 12:55:40;;;;;;;8.40;4.90;;;28.60;53.50;;;;;;5073556;28;20191;-80
2022/08/14 12:58:07;;;;;;;7.03;5.05;;;28.70;52.10;;;;;;5074965;28;20254;-81
2022/08/14 13:00:35;;;;;;;6.72;4.60;;;28.70;52.80;;;;;;5073516;28;20619;-81
2022/08/14 13:03:03;;;;;;;6.57;4.47;;;28.70;53.80;;;;;;5074807;28;20172;-81
2022/08/14 13:05:32;;;;;;;7.20;4.57;;;28.60;52.90;;;;;;5074495;28;20297;-80